createdAt,value
2018-07-31T00:00:35.428Z,0
2018-07-31T00:01:44.079Z,0
2018-07-31T00:02:52.995Z,0
2018-07-31T00:04:01.900Z,0
2018-07-31T00:05:10.557Z,0
2018-07-31T00:06:19.203Z,0
2018-07-31T00:07:27.859Z,0
2018-07-31T00:08:36.500Z,0
2018-07-31T00:09:45.159Z,0
2018-07-31T00:10:53.808Z,0
2018-07-31T00:12:02.461Z,0
2018-07-31T00:13:11.099Z,0
2018-07-31T00:14:20.016Z,0
2018-07-31T00:15:28.673Z,0
2018-07-31T00:16:37.588Z,0
2018-07-31T00:17:46.242Z,0
2018-07-31T00:18:54.882Z,0
2018-07-31T00:20:03.536Z,0
2018-07-31T00:21:12.181Z,0
2018-07-31T00:22:20.841Z,0
2018-07-31T00:23:29.481Z,0
2018-07-31T00:24:38.137Z,0
2018-07-31T00:25:46.788Z,0
2018-07-31T00:26:55.451Z,0
2018-07-31T00:28:04.360Z,0
2018-07-31T00:29:13.011Z,0
2018-07-31T00:30:21.662Z,0
2018-07-31T00:31:30.320Z,0
2018-07-31T00:32:38.969Z,0
2018-07-31T00:33:47.614Z,0
2018-07-31T00:34:56.265Z,0
2018-07-31T00:36:05.170Z,0
2018-07-31T00:37:13.827Z,0
2018-07-31T00:38:22.474Z,0
2018-07-31T00:39:31.128Z,0
2018-07-31T00:40:39.768Z,0
2018-07-31T00:41:48.430Z,0
2018-07-31T00:42:57.071Z,0
2018-07-31T00:44:05.729Z,0
2018-07-31T00:45:14.634Z,0
2018-07-31T00:46:23.294Z,0
2018-07-31T00:47:31.951Z,0
2018-07-31T00:48:40.865Z,0
2018-07-31T00:49:49.510Z,0
2018-07-31T00:50:58.163Z,0
2018-07-31T00:52:07.080Z,0
2018-07-31T00:53:15.729Z,0
2018-07-31T00:54:24.382Z,0
2018-07-31T00:55:33.292Z,0
2018-07-31T00:56:41.942Z,0
2018-07-31T00:57:50.591Z,0
2018-07-31T00:58:59.245Z,0
2018-07-31T01:00:07.888Z,0
2018-07-31T01:01:16.534Z,0
2018-07-31T01:02:25.452Z,0
2018-07-31T01:03:34.371Z,0
2018-07-31T01:04:43.013Z,0
2018-07-31T01:05:51.674Z,0
2018-07-31T01:07:00.319Z,0
2018-07-31T01:08:08.971Z,0
2018-07-31T01:09:17.618Z,0
2018-07-31T01:10:26.266Z,0
2018-07-31T01:11:34.914Z,0
2018-07-31T01:12:43.563Z,0
2018-07-31T01:13:52.482Z,0
2018-07-31T01:15:01.132Z,0
2018-07-31T01:16:09.784Z,0
2018-07-31T01:17:18.431Z,0
2018-07-31T01:18:27.125Z,0
2018-07-31T01:19:35.739Z,0
2018-07-31T01:20:44.389Z,0
2018-07-31T01:21:53.035Z,0
2018-07-31T01:23:01.693Z,0
2018-07-31T01:24:10.608Z,0
2018-07-31T01:25:19.522Z,0
2018-07-31T01:26:28.162Z,0
2018-07-31T01:27:36.814Z,0
2018-07-31T01:28:45.465Z,0
2018-07-31T01:29:54.117Z,0
2018-07-31T01:31:02.771Z,0
2018-07-31T01:32:11.681Z,0
2018-07-31T01:33:20.597Z,0
2018-07-31T01:34:29.248Z,0
2018-07-31T01:35:37.906Z,0
2018-07-31T01:36:46.547Z,0
2018-07-31T01:37:55.197Z,0
2018-07-31T01:39:04.108Z,0
2018-07-31T01:40:12.762Z,0
2018-07-31T01:41:21.668Z,0
2018-07-31T01:42:30.321Z,0
2018-07-31T01:43:39.759Z,0
2018-07-31T01:44:48.414Z,0
2018-07-31T01:45:57.066Z,0
2018-07-31T01:47:05.978Z,0
2018-07-31T01:48:14.885Z,0
2018-07-31T01:49:23.530Z,0
2018-07-31T01:50:32.188Z,0
2018-07-31T01:51:40.835Z,0
2018-07-31T01:52:49.486Z,0
2018-07-31T01:53:58.127Z,0
2018-07-31T01:55:07.055Z,0
2018-07-31T01:56:15.700Z,0
2018-07-31T01:57:24.354Z,0
2018-07-31T01:58:32.994Z,0
2018-07-31T01:59:41.686Z,0
2018-07-31T02:00:50.309Z,0
2018-07-31T02:01:58.961Z,0
2018-07-31T02:03:07.602Z,0
2018-07-31T02:04:16.254Z,0
2018-07-31T02:05:24.908Z,0
2018-07-31T02:06:33.825Z,0
2018-07-31T02:07:42.477Z,0
2018-07-31T02:08:51.118Z,0
2018-07-31T02:09:59.773Z,0
2018-07-31T02:11:08.680Z,0
2018-07-31T02:12:17.338Z,0
2018-07-31T02:13:25.981Z,0
2018-07-31T02:14:34.638Z,0
2018-07-31T02:15:43.541Z,0
2018-07-31T02:16:52.200Z,0
2018-07-31T02:18:00.841Z,0
2018-07-31T02:19:09.496Z,0
2018-07-31T02:20:18.142Z,0
2018-07-31T02:21:26.806Z,0
2018-07-31T02:22:35.713Z,0
2018-07-31T02:23:44.365Z,0
2018-07-31T02:24:53.265Z,0
2018-07-31T02:26:01.913Z,0
2018-07-31T02:27:10.833Z,0
2018-07-31T02:28:20.108Z,0
2018-07-31T02:29:28.509Z,0
2018-07-31T02:30:37.148Z,0
2018-07-31T02:31:45.811Z,0
2018-07-31T02:32:54.726Z,0
2018-07-31T02:34:03.383Z,0
2018-07-31T02:35:12.812Z,0
2018-07-31T02:36:21.743Z,0
2018-07-31T02:37:30.659Z,0
2018-07-31T02:38:39.318Z,0
2018-07-31T02:39:48.494Z,0
2018-07-31T02:40:57.151Z,0
2018-07-31T02:42:06.068Z,0
2018-07-31T02:43:14.725Z,0
2018-07-31T02:44:23.646Z,0
2018-07-31T02:45:32.548Z,0
2018-07-31T02:46:41.203Z,0
2018-07-31T02:47:49.860Z,0
2018-07-31T02:48:58.521Z,0
2018-07-31T02:50:07.167Z,0
2018-07-31T02:51:15.820Z,0
2018-07-31T02:52:24.471Z,0
2018-07-31T02:53:33.131Z,0
2018-07-31T02:54:41.776Z,0
2018-07-31T02:55:50.429Z,0
2018-07-31T02:56:59.360Z,0
2018-07-31T02:58:08.297Z,0
2018-07-31T02:59:16.939Z,0
2018-07-31T03:00:25.590Z,0
2018-07-31T03:01:34.240Z,0
2018-07-31T03:02:42.890Z,0
2018-07-31T03:03:51.545Z,0
2018-07-31T03:05:00.194Z,0
2018-07-31T03:06:09.120Z,0
2018-07-31T03:07:17.770Z,0
2018-07-31T03:08:26.423Z,0
2018-07-31T03:09:35.090Z,0
2018-07-31T03:10:43.732Z,0
2018-07-31T03:11:52.385Z,0
2018-07-31T03:13:01.041Z,0
2018-07-31T03:14:09.690Z,0
2018-07-31T03:15:18.342Z,0
2018-07-31T03:16:27.264Z,0
2018-07-31T03:17:36.186Z,0
2018-07-31T03:18:44.836Z,0
2018-07-31T03:19:53.491Z,0
2018-07-31T03:21:02.144Z,0
2018-07-31T03:22:11.055Z,0
2018-07-31T03:23:19.710Z,0
2018-07-31T03:24:28.884Z,0
2018-07-31T03:25:37.601Z,0
2018-07-31T03:26:46.518Z,0
2018-07-31T03:27:55.435Z,0
2018-07-31T03:29:04.088Z,0
2018-07-31T03:30:13.276Z,0
2018-07-31T03:31:21.934Z,0
2018-07-31T03:32:30.584Z,0
2018-07-31T03:33:39.230Z,0
2018-07-31T03:34:47.884Z,0
2018-07-31T03:35:56.530Z,0
2018-07-31T03:37:05.438Z,0
2018-07-31T03:38:14.615Z,0
2018-07-31T03:39:23.529Z,0
2018-07-31T03:40:32.182Z,0
2018-07-31T03:41:40.829Z,0
2018-07-31T03:42:49.478Z,0
2018-07-31T03:43:58.390Z,5
2018-07-31T03:45:07.041Z,5
2018-07-31T03:46:15.689Z,5
2018-07-31T03:47:24.337Z,5
2018-07-31T03:48:32.991Z,5
2018-07-31T03:49:41.635Z,5
2018-07-31T03:50:50.287Z,5
2018-07-31T03:51:58.934Z,5
2018-07-31T03:53:07.858Z,10
2018-07-31T03:54:16.767Z,10
2018-07-31T03:55:25.424Z,10
2018-07-31T03:56:34.405Z,10
2018-07-31T03:57:43.059Z,10
2018-07-31T03:58:51.707Z,10
2018-07-31T04:00:00.360Z,15
2018-07-31T04:01:09.006Z,15
2018-07-31T04:02:17.650Z,15
2018-07-31T04:03:26.567Z,20
2018-07-31T04:04:35.589Z,20
2018-07-31T04:05:44.197Z,20
2018-07-31T04:06:52.844Z,20
2018-07-31T04:08:01.499Z,25
2018-07-31T04:09:10.144Z,25
2018-07-31T04:10:18.797Z,25
2018-07-31T04:11:27.439Z,25
2018-07-31T04:12:36.092Z,30
2018-07-31T04:13:44.749Z,30
2018-07-31T04:14:53.392Z,30
2018-07-31T04:16:02.045Z,30
2018-07-31T04:17:10.768Z,30
2018-07-31T04:18:19.340Z,35
2018-07-31T04:19:27.989Z,35
2018-07-31T04:20:36.643Z,35
2018-07-31T04:21:45.288Z,35
2018-07-31T04:22:53.936Z,40
2018-07-31T04:24:02.583Z,40
2018-07-31T04:25:11.238Z,45
2018-07-31T04:26:20.144Z,45
2018-07-31T04:27:28.798Z,50
2018-07-31T04:28:37.444Z,50
2018-07-31T04:29:46.096Z,50
2018-07-31T04:30:54.742Z,55
2018-07-31T04:32:03.390Z,55
2018-07-31T04:33:12.040Z,60
2018-07-31T04:34:20.688Z,60
2018-07-31T04:35:29.341Z,65
2018-07-31T04:36:37.989Z,65
2018-07-31T04:37:46.639Z,70
2018-07-31T04:38:55.282Z,70
2018-07-31T04:40:04.202Z,75
2018-07-31T04:41:13.188Z,75
2018-07-31T04:42:21.879Z,75
2018-07-31T04:43:30.474Z,75
2018-07-31T04:44:39.132Z,80
2018-07-31T04:45:47.780Z,80
2018-07-31T04:46:56.429Z,85
2018-07-31T04:48:05.335Z,80
2018-07-31T04:49:13.985Z,80
2018-07-31T04:50:22.661Z,80
2018-07-31T04:51:31.553Z,80
2018-07-31T04:52:40.210Z,80
2018-07-31T04:53:48.851Z,80
2018-07-31T04:54:57.771Z,80
2018-07-31T04:56:06.670Z,80
2018-07-31T04:57:15.327Z,80
2018-07-31T04:58:23.972Z,85
2018-07-31T04:59:32.621Z,85
2018-07-31T05:00:41.533Z,85
2018-07-31T05:01:50.190Z,85
2018-07-31T05:02:58.831Z,85
2018-07-31T05:04:07.483Z,85
2018-07-31T05:05:16.128Z,85
2018-07-31T05:06:25.052Z,85
2018-07-31T05:07:33.696Z,85
2018-07-31T05:08:42.337Z,90
2018-07-31T05:09:51.249Z,100
2018-07-31T05:10:59.914Z,110
2018-07-31T05:12:08.884Z,120
2018-07-31T05:13:17.796Z,125
2018-07-31T05:14:26.453Z,130
2018-07-31T05:15:35.096Z,140
2018-07-31T05:16:43.756Z,140
2018-07-31T05:17:52.407Z,145
2018-07-31T05:19:01.054Z,150
2018-07-31T05:20:09.695Z,155
2018-07-31T05:21:18.352Z,160
2018-07-31T05:22:27.000Z,165
2018-07-31T05:23:35.652Z,165
2018-07-31T05:24:44.293Z,175
2018-07-31T05:25:52.944Z,175
2018-07-31T05:27:01.609Z,165
2018-07-31T05:28:10.254Z,170
2018-07-31T05:29:18.905Z,175
2018-07-31T05:30:27.548Z,175
2018-07-31T05:31:36.199Z,175
2018-07-31T05:32:44.973Z,175
2018-07-31T05:33:53.504Z,180
2018-07-31T05:35:02.145Z,180
2018-07-31T05:36:10.802Z,175
2018-07-31T05:37:19.445Z,170
2018-07-31T05:38:28.102Z,165
2018-07-31T05:39:37.012Z,170
2018-07-31T05:40:45.666Z,160
2018-07-31T05:41:54.313Z,160
2018-07-31T05:43:02.972Z,165
2018-07-31T05:44:11.621Z,165
2018-07-31T05:45:20.268Z,160
2018-07-31T05:46:28.919Z,160
2018-07-31T05:47:37.837Z,155
2018-07-31T05:48:46.500Z,150
2018-07-31T05:49:55.406Z,150
2018-07-31T05:51:04.062Z,145
2018-07-31T05:52:12.701Z,140
2018-07-31T05:53:21.360Z,145
2018-07-31T05:54:30.010Z,140
2018-07-31T05:55:38.668Z,140
2018-07-31T05:56:47.311Z,130
2018-07-31T05:57:55.970Z,130
2018-07-31T05:59:04.890Z,125
2018-07-31T06:00:13.538Z,125
2018-07-31T06:01:22.181Z,120
2018-07-31T06:02:30.827Z,120
2018-07-31T06:03:39.496Z,120
2018-07-31T06:04:48.410Z,125
2018-07-31T06:05:57.061Z,125
2018-07-31T06:07:05.703Z,130
2018-07-31T06:08:14.360Z,130
2018-07-31T06:09:23.010Z,135
2018-07-31T06:10:31.671Z,130
2018-07-31T06:11:40.331Z,130
2018-07-31T06:12:48.967Z,140
2018-07-31T06:13:57.614Z,135
2018-07-31T06:15:06.299Z,140
2018-07-31T06:16:15.186Z,140
2018-07-31T06:17:23.837Z,140
2018-07-31T06:18:32.485Z,140
2018-07-31T06:19:41.146Z,140
2018-07-31T06:20:50.068Z,135
2018-07-31T06:21:58.970Z,140
2018-07-31T06:23:07.882Z,140
2018-07-31T06:24:16.793Z,140
2018-07-31T06:25:25.451Z,140
2018-07-31T06:26:34.099Z,140
2018-07-31T06:27:42.755Z,145
2018-07-31T06:28:51.397Z,150
2018-07-31T06:30:00.062Z,145
2018-07-31T06:31:08.976Z,150
2018-07-31T06:32:17.629Z,155
2018-07-31T06:33:26.267Z,160
2018-07-31T06:34:35.194Z,155
2018-07-31T06:35:44.106Z,160
2018-07-31T06:36:52.761Z,165
2018-07-31T06:38:01.665Z,165
2018-07-31T06:39:10.316Z,170
2018-07-31T06:40:19.019Z,175
2018-07-31T06:41:27.622Z,180
2018-07-31T06:42:36.276Z,190
2018-07-31T06:43:44.919Z,190
2018-07-31T06:44:53.570Z,205
2018-07-31T06:46:02.224Z,210
2018-07-31T06:47:10.877Z,210
2018-07-31T06:48:19.520Z,220
2018-07-31T06:49:28.175Z,220
2018-07-31T06:50:36.822Z,220
2018-07-31T06:51:45.741Z,235
2018-07-31T06:52:54.387Z,240
2018-07-31T06:54:03.306Z,240
2018-07-31T06:55:11.955Z,245
2018-07-31T06:56:20.608Z,240
2018-07-31T06:57:29.258Z,260
2018-07-31T06:58:37.908Z,265
2018-07-31T06:59:46.557Z,260
2018-07-31T07:00:55.209Z,260
2018-07-31T07:02:04.140Z,265
2018-07-31T07:03:12.782Z,260
2018-07-31T07:04:21.696Z,265
2018-07-31T07:05:30.612Z,270
2018-07-31T07:06:39.267Z,260
2018-07-31T07:07:47.920Z,265
2018-07-31T07:08:56.569Z,260
2018-07-31T07:10:05.212Z,260
2018-07-31T07:11:13.868Z,255
2018-07-31T07:12:22.519Z,255
2018-07-31T07:13:31.438Z,255
2018-07-31T07:14:40.347Z,265
2018-07-31T07:15:49.001Z,255
2018-07-31T07:16:57.653Z,245
2018-07-31T07:18:06.307Z,250
2018-07-31T07:19:14.961Z,260
2018-07-31T07:20:23.608Z,260
2018-07-31T07:21:32.528Z,250
2018-07-31T07:22:41.186Z,255
2018-07-31T07:23:50.156Z,240
2018-07-31T07:24:58.807Z,250
2018-07-31T07:26:07.993Z,245
2018-07-31T07:27:16.916Z,235
2018-07-31T07:28:25.571Z,235
2018-07-31T07:29:34.221Z,240
2018-07-31T07:30:42.874Z,245
2018-07-31T07:31:51.786Z,260
2018-07-31T07:33:00.444Z,260
2018-07-31T07:34:09.100Z,275
2018-07-31T07:35:18.024Z,290
2018-07-31T07:36:26.944Z,300
2018-07-31T07:37:35.858Z,275
2018-07-31T07:38:44.516Z,280
2018-07-31T07:39:53.168Z,280
2018-07-31T07:41:01.832Z,285
2018-07-31T07:42:10.748Z,285
2018-07-31T07:43:19.398Z,305
2018-07-31T07:44:28.312Z,305
2018-07-31T07:45:36.963Z,305
2018-07-31T07:46:45.626Z,315
2018-07-31T07:47:54.537Z,300
2018-07-31T07:49:03.192Z,290
2018-07-31T07:50:12.109Z,300
2018-07-31T07:51:20.766Z,290
2018-07-31T07:52:29.418Z,285
2018-07-31T07:53:38.074Z,275
2018-07-31T07:54:46.725Z,280
2018-07-31T07:55:55.381Z,295
2018-07-31T07:57:04.041Z,305
2018-07-31T07:58:12.694Z,300
2018-07-31T07:59:21.349Z,295
2018-07-31T08:00:29.995Z,295
2018-07-31T08:01:38.653Z,285
2018-07-31T08:02:47.316Z,285
2018-07-31T08:03:56.014Z,280
2018-07-31T08:05:04.619Z,280
2018-07-31T08:06:13.547Z,270
2018-07-31T08:07:22.193Z,260
2018-07-31T08:08:30.845Z,250
2018-07-31T08:09:39.559Z,250
2018-07-31T08:10:48.156Z,245
2018-07-31T08:11:56.805Z,240
2018-07-31T08:13:05.719Z,245
2018-07-31T08:14:14.907Z,255
2018-07-31T08:15:23.556Z,295
2018-07-31T08:16:32.212Z,285
2018-07-31T08:17:40.866Z,275
2018-07-31T08:18:49.791Z,270
2018-07-31T08:19:58.441Z,255
2018-07-31T08:21:07.361Z,250
2018-07-31T08:22:16.014Z,250
2018-07-31T08:23:24.677Z,270
2018-07-31T08:24:33.341Z,285
2018-07-31T08:25:41.978Z,315
2018-07-31T08:26:50.633Z,320
2018-07-31T08:27:59.292Z,305
2018-07-31T08:29:08.213Z,270
2018-07-31T08:30:17.125Z,280
2018-07-31T08:31:25.776Z,280
2018-07-31T08:32:34.691Z,275
2018-07-31T08:33:43.350Z,285
2018-07-31T08:34:52.001Z,275
2018-07-31T08:36:00.655Z,245
2018-07-31T08:37:09.307Z,265
2018-07-31T08:38:17.969Z,260
2018-07-31T08:39:26.617Z,260
2018-07-31T08:40:35.275Z,270
2018-07-31T08:41:43.920Z,280
2018-07-31T08:42:52.584Z,260
2018-07-31T08:44:01.233Z,270
2018-07-31T08:45:09.893Z,260
2018-07-31T08:46:18.795Z,270
2018-07-31T08:47:27.721Z,250
2018-07-31T08:48:36.643Z,250
2018-07-31T08:49:45.300Z,235
2018-07-31T08:50:53.955Z,225
2018-07-31T08:52:02.600Z,245
2018-07-31T08:53:11.259Z,245
2018-07-31T08:54:19.909Z,285
2018-07-31T08:55:28.571Z,290
2018-07-31T08:56:37.216Z,295
2018-07-31T08:57:45.878Z,285
2018-07-31T08:58:55.055Z,290
2018-07-31T09:00:03.718Z,315
2018-07-31T09:01:12.362Z,330
2018-07-31T09:02:21.020Z,335
2018-07-31T09:03:29.943Z,315
2018-07-31T09:04:38.894Z,335
2018-07-31T09:05:47.542Z,320
2018-07-31T09:06:56.193Z,305
2018-07-31T09:08:04.855Z,335
2018-07-31T09:09:13.498Z,335
2018-07-31T09:10:22.162Z,325
2018-07-31T09:11:30.812Z,335
2018-07-31T09:12:39.472Z,315
2018-07-31T09:13:48.119Z,285
2018-07-31T09:14:56.785Z,290
2018-07-31T09:16:05.695Z,305
2018-07-31T09:17:14.618Z,320
2018-07-31T09:18:23.264Z,320
2018-07-31T09:19:32.194Z,320
2018-07-31T09:20:40.849Z,325
2018-07-31T09:21:49.505Z,330
2018-07-31T09:22:58.151Z,340
2018-07-31T09:24:06.807Z,355
2018-07-31T09:25:15.467Z,360
2018-07-31T09:26:24.125Z,355
2018-07-31T09:27:32.781Z,400
2018-07-31T09:28:41.692Z,370
2018-07-31T09:29:50.353Z,390
2018-07-31T09:30:59.561Z,345
2018-07-31T09:32:08.050Z,340
2018-07-31T09:33:16.699Z,335
2018-07-31T09:34:25.358Z,335
2018-07-31T09:35:34.009Z,390
2018-07-31T09:36:42.671Z,365
2018-07-31T09:37:51.319Z,315
2018-07-31T09:38:59.978Z,310
2018-07-31T09:40:08.627Z,300
2018-07-31T09:41:17.285Z,295
2018-07-31T09:42:25.941Z,295
2018-07-31T09:43:34.597Z,305
2018-07-31T09:44:43.250Z,345
2018-07-31T09:45:51.902Z,380
2018-07-31T09:47:00.564Z,370
2018-07-31T09:48:09.220Z,335
2018-07-31T09:49:17.875Z,300
2018-07-31T09:50:26.794Z,280
2018-07-31T09:51:35.456Z,275
2018-07-31T09:52:44.111Z,270
2018-07-31T09:53:52.774Z,265
2018-07-31T09:55:01.434Z,265
2018-07-31T09:56:10.093Z,265
2018-07-31T09:57:18.746Z,280
2018-07-31T09:58:27.405Z,255
2018-07-31T09:59:36.325Z,260
2018-07-31T10:00:44.983Z,265
2018-07-31T10:01:53.906Z,325
2018-07-31T10:03:02.832Z,345
2018-07-31T10:04:11.496Z,310
2018-07-31T10:05:20.172Z,260
2018-07-31T10:06:28.797Z,310
2018-07-31T10:07:37.454Z,350
2018-07-31T10:08:46.116Z,355
2018-07-31T10:09:55.037Z,370
2018-07-31T10:11:03.960Z,355
2018-07-31T10:12:12.703Z,390
2018-07-31T10:13:21.278Z,380
2018-07-31T10:14:29.934Z,365
2018-07-31T10:15:38.596Z,330
2018-07-31T10:16:47.254Z,355
2018-07-31T10:17:55.943Z,335
2018-07-31T10:19:04.569Z,310
2018-07-31T10:20:13.227Z,300
2018-07-31T10:21:21.880Z,305
2018-07-31T10:22:30.799Z,285
2018-07-31T10:23:39.459Z,280
2018-07-31T10:24:48.117Z,275
2018-07-31T10:25:56.770Z,275
2018-07-31T10:27:05.421Z,295
2018-07-31T10:28:14.081Z,315
2018-07-31T10:29:22.999Z,325
2018-07-31T10:30:31.688Z,345
2018-07-31T10:31:40.309Z,295
2018-07-31T10:32:48.972Z,295
2018-07-31T10:33:57.623Z,335
2018-07-31T10:35:06.284Z,380
2018-07-31T10:36:14.930Z,380
2018-07-31T10:37:23.636Z,325
2018-07-31T10:38:32.845Z,340
2018-07-31T10:39:41.493Z,330
2018-07-31T10:40:50.154Z,320
2018-07-31T10:41:58.801Z,325
2018-07-31T10:43:07.461Z,340
2018-07-31T10:44:16.116Z,320
2018-07-31T10:45:24.782Z,295
2018-07-31T10:46:33.428Z,305
2018-07-31T10:47:42.093Z,300
2018-07-31T10:48:51.023Z,300
2018-07-31T10:49:59.672Z,300
2018-07-31T10:51:08.683Z,300
2018-07-31T10:52:17.540Z,295
2018-07-31T10:53:26.196Z,290
2018-07-31T10:54:34.859Z,280
2018-07-31T10:55:43.513Z,280
2018-07-31T10:56:52.163Z,270
2018-07-31T10:58:00.827Z,260
2018-07-31T10:59:09.802Z,255
2018-07-31T11:00:18.890Z,255
2018-07-31T11:01:27.464Z,255
2018-07-31T11:02:36.124Z,255
2018-07-31T11:03:44.776Z,255
2018-07-31T11:04:53.437Z,250
2018-07-31T11:06:02.091Z,245
2018-07-31T11:07:10.756Z,230
2018-07-31T11:08:19.404Z,220
2018-07-31T11:09:28.073Z,210
2018-07-31T11:10:36.733Z,300
2018-07-31T11:11:45.392Z,265
2018-07-31T11:12:54.042Z,285
2018-07-31T11:14:02.700Z,295
2018-07-31T11:15:11.370Z,295
2018-07-31T11:16:20.018Z,300
2018-07-31T11:17:28.676Z,295
2018-07-31T11:18:37.327Z,195
2018-07-31T11:19:45.996Z,235
2018-07-31T11:20:54.665Z,175
2018-07-31T11:22:03.313Z,250
2018-07-31T11:23:12.223Z,255
2018-07-31T11:24:20.882Z,205
2018-07-31T11:25:29.530Z,250
2018-07-31T11:26:38.196Z,245
2018-07-31T11:27:46.851Z,250
2018-07-31T11:28:55.511Z,260
2018-07-31T11:30:04.487Z,165
2018-07-31T11:31:13.155Z,260
2018-07-31T11:32:21.808Z,265
2018-07-31T11:33:30.459Z,275
2018-07-31T11:34:39.123Z,285
2018-07-31T11:35:48.045Z,305
2018-07-31T11:36:56.693Z,220
2018-07-31T11:38:05.358Z,280
2018-07-31T11:39:14.008Z,185
2018-07-31T11:40:22.672Z,185
2018-07-31T11:41:31.321Z,150
2018-07-31T11:42:39.983Z,240
2018-07-31T11:43:48.900Z,230
2018-07-31T11:44:57.564Z,230
2018-07-31T11:46:06.213Z,230
2018-07-31T11:47:14.870Z,225
2018-07-31T11:48:23.525Z,225
2018-07-31T11:49:32.189Z,215
2018-07-31T11:50:40.847Z,210
2018-07-31T11:51:49.505Z,220
2018-07-31T11:52:58.158Z,225
2018-07-31T11:54:06.814Z,230
2018-07-31T11:55:15.481Z,225
2018-07-31T11:56:24.147Z,225
2018-07-31T11:57:33.590Z,225
2018-07-31T11:58:42.497Z,230
2018-07-31T11:59:51.163Z,235
2018-07-31T12:00:59.815Z,250
2018-07-31T12:02:08.747Z,205
2018-07-31T12:03:17.392Z,245
2018-07-31T12:04:26.063Z,255
2018-07-31T12:05:35.240Z,245
2018-07-31T12:06:44.177Z,240
2018-07-31T12:07:53.124Z,255
2018-07-31T12:09:01.785Z,245
2018-07-31T12:10:10.447Z,235
2018-07-31T12:11:19.108Z,130
2018-07-31T12:12:27.769Z,140
2018-07-31T12:13:36.417Z,235
2018-07-31T12:14:45.078Z,240
2018-07-31T12:15:54.013Z,235
2018-07-31T12:17:02.676Z,235
2018-07-31T12:18:11.325Z,230
2018-07-31T12:19:19.989Z,235
2018-07-31T12:20:28.643Z,240
2018-07-31T12:21:37.308Z,250
2018-07-31T12:22:45.958Z,250
2018-07-31T12:23:54.894Z,140
2018-07-31T12:25:03.544Z,135
2018-07-31T12:26:12.207Z,140
2018-07-31T12:27:20.871Z,160
2018-07-31T12:28:29.523Z,170
2018-07-31T12:29:38.178Z,180
2018-07-31T12:30:46.833Z,210
2018-07-31T12:31:56.032Z,300
2018-07-31T12:33:05.066Z,205
2018-07-31T12:34:14.111Z,185
2018-07-31T12:35:22.763Z,175
2018-07-31T12:36:31.952Z,185
2018-07-31T12:37:40.610Z,195
2018-07-31T12:38:49.265Z,200
2018-07-31T12:39:57.917Z,200
2018-07-31T12:41:06.578Z,205
2018-07-31T12:42:15.232Z,225
2018-07-31T12:43:23.889Z,280
2018-07-31T12:44:32.805Z,285
2018-07-31T12:45:41.465Z,190
2018-07-31T12:46:50.120Z,190
2018-07-31T12:47:58.779Z,235
2018-07-31T12:49:07.437Z,300
2018-07-31T12:50:16.139Z,295
2018-07-31T12:51:24.747Z,255
2018-07-31T12:52:33.403Z,255
2018-07-31T12:53:42.064Z,265
2018-07-31T12:54:50.975Z,160
2018-07-31T12:55:59.636Z,230
2018-07-31T12:57:08.292Z,200
2018-07-31T12:58:16.953Z,275
2018-07-31T12:59:25.606Z,210
2018-07-31T13:00:34.269Z,275
2018-07-31T13:01:43.185Z,200
2018-07-31T13:02:51.847Z,190
2018-07-31T13:04:00.774Z,250
2018-07-31T13:05:09.429Z,230
2018-07-31T13:06:18.093Z,240
2018-07-31T13:07:26.749Z,300
2018-07-31T13:08:35.410Z,300
2018-07-31T13:09:44.068Z,300
2018-07-31T13:10:52.727Z,290
2018-07-31T13:12:01.381Z,195
2018-07-31T13:13:10.385Z,265
2018-07-31T13:14:19.031Z,185
2018-07-31T13:15:27.687Z,210
2018-07-31T13:16:36.340Z,180
2018-07-31T13:17:45.001Z,250
2018-07-31T13:18:53.973Z,245
2018-07-31T13:20:02.855Z,240
2018-07-31T13:21:11.772Z,135
2018-07-31T13:22:20.431Z,130
2018-07-31T13:23:29.091Z,215
2018-07-31T13:24:37.748Z,185
2018-07-31T13:25:46.671Z,225
2018-07-31T13:26:55.324Z,255
2018-07-31T13:28:03.982Z,240
2018-07-31T13:29:12.634Z,230
2018-07-31T13:30:21.301Z,130
2018-07-31T13:31:30.222Z,135
2018-07-31T13:32:38.873Z,150
2018-07-31T13:33:47.533Z,170
2018-07-31T13:34:56.180Z,185
2018-07-31T13:36:04.843Z,255
2018-07-31T13:37:13.807Z,230
2018-07-31T13:38:22.442Z,215
2018-07-31T13:39:31.092Z,210
2018-07-31T13:40:39.751Z,205
2018-07-31T13:41:48.944Z,205
2018-07-31T13:42:57.603Z,205
2018-07-31T13:44:06.430Z,210
2018-07-31T13:45:14.921Z,210
2018-07-31T13:46:23.573Z,210
2018-07-31T13:47:32.226Z,210
2018-07-31T13:48:40.890Z,210
2018-07-31T13:49:49.537Z,210
2018-07-31T13:50:58.198Z,210
2018-07-31T13:52:06.850Z,210
2018-07-31T13:53:15.517Z,205
2018-07-31T13:54:24.420Z,205
2018-07-31T13:55:33.088Z,200
2018-07-31T13:56:41.741Z,200
2018-07-31T13:57:50.668Z,200
2018-07-31T13:58:59.320Z,200
2018-07-31T14:00:07.972Z,200
2018-07-31T14:01:16.629Z,200
2018-07-31T14:02:25.282Z,200
2018-07-31T14:03:33.945Z,205
2018-07-31T14:04:42.598Z,200
2018-07-31T14:05:51.262Z,200
2018-07-31T14:06:59.924Z,200
2018-07-31T14:08:08.585Z,200
2018-07-31T14:09:17.236Z,205
2018-07-31T14:10:26.275Z,115
2018-07-31T14:11:34.889Z,190
2018-07-31T14:12:43.590Z,135
2018-07-31T14:13:52.281Z,135
2018-07-31T14:15:01.139Z,220
2018-07-31T14:16:09.788Z,255
2018-07-31T14:17:18.445Z,240
2018-07-31T14:18:27.105Z,220
2018-07-31T14:19:35.771Z,210
2018-07-31T14:20:44.727Z,205
2018-07-31T14:21:53.373Z,200
2018-07-31T14:23:02.035Z,205
2018-07-31T14:24:10.687Z,210
2018-07-31T14:25:19.350Z,210
2018-07-31T14:26:27.996Z,215
2018-07-31T14:27:36.657Z,180
2018-07-31T14:28:45.309Z,200
2018-07-31T14:29:53.972Z,195
2018-07-31T14:31:02.624Z,190
2018-07-31T14:32:11.288Z,185
2018-07-31T14:33:20.203Z,180
2018-07-31T14:34:28.868Z,180
2018-07-31T14:35:37.798Z,180
2018-07-31T14:36:46.744Z,180
2018-07-31T14:37:55.667Z,175
2018-07-31T14:39:04.322Z,175
2018-07-31T14:40:12.986Z,175
2018-07-31T14:41:21.642Z,170
2018-07-31T14:42:30.299Z,175
2018-07-31T14:43:38.951Z,175
2018-07-31T14:44:47.616Z,175
2018-07-31T14:45:56.272Z,170
2018-07-31T14:47:05.191Z,170
2018-07-31T14:48:13.846Z,170
2018-07-31T14:49:22.505Z,175
2018-07-31T14:50:31.418Z,175
2018-07-31T14:51:40.078Z,170
2018-07-31T14:52:48.727Z,110
2018-07-31T14:53:57.394Z,105
2018-07-31T14:55:06.316Z,110
2018-07-31T14:56:14.975Z,160
2018-07-31T14:57:23.632Z,170
2018-07-31T14:58:32.285Z,165
2018-07-31T14:59:40.942Z,160
2018-07-31T15:00:49.859Z,160
2018-07-31T15:01:58.520Z,145
2018-07-31T15:03:07.171Z,160
2018-07-31T15:04:15.827Z,165
2018-07-31T15:05:24.742Z,175
2018-07-31T15:06:33.406Z,165
2018-07-31T15:07:42.061Z,165
2018-07-31T15:08:50.985Z,165
2018-07-31T15:09:59.637Z,170
2018-07-31T15:11:08.348Z,155
2018-07-31T15:12:16.947Z,155
2018-07-31T15:13:25.603Z,125
2018-07-31T15:14:34.258Z,120
2018-07-31T15:15:42.912Z,120
2018-07-31T15:16:51.578Z,125
2018-07-31T15:18:00.233Z,125
2018-07-31T15:19:08.887Z,130
2018-07-31T15:20:17.810Z,180
2018-07-31T15:21:26.471Z,180
2018-07-31T15:22:35.128Z,180
2018-07-31T15:23:43.785Z,195
2018-07-31T15:24:52.434Z,185
2018-07-31T15:26:01.101Z,185
2018-07-31T15:27:10.020Z,180
2018-07-31T15:28:18.681Z,145
2018-07-31T15:29:27.349Z,195
2018-07-31T15:30:36.012Z,205
2018-07-31T15:31:44.921Z,195
2018-07-31T15:32:53.839Z,195
2018-07-31T15:34:02.494Z,205
2018-07-31T15:35:11.155Z,165
2018-07-31T15:36:19.821Z,165
2018-07-31T15:37:28.737Z,190
2018-07-31T15:38:37.389Z,195
2018-07-31T15:39:46.049Z,145
2018-07-31T15:40:54.709Z,145
2018-07-31T15:42:03.363Z,140
2018-07-31T15:43:12.015Z,130
2018-07-31T15:44:20.676Z,175
2018-07-31T15:45:29.328Z,205
2018-07-31T15:46:37.987Z,220
2018-07-31T15:47:46.973Z,225
2018-07-31T15:48:55.629Z,220
2018-07-31T15:50:04.285Z,230
2018-07-31T15:51:12.943Z,230
2018-07-31T15:52:21.603Z,225
2018-07-31T15:53:30.255Z,220
2018-07-31T15:54:38.910Z,215
2018-07-31T15:55:47.572Z,210
2018-07-31T15:56:56.229Z,215
2018-07-31T15:58:04.880Z,220
2018-07-31T15:59:13.799Z,210
2018-07-31T16:00:22.462Z,175
2018-07-31T16:01:31.115Z,185
2018-07-31T16:02:39.766Z,170
2018-07-31T16:03:48.425Z,155
2018-07-31T16:04:57.078Z,150